Impacts TAF Board INFO
FOR SITUATIONAL AWARENESS. NOT TO BE USED FOR FLIGHT PLANNING PURPOSES.
IDs:

KMEM - Memphis Intl, TN, US

Issued at 0315 UTC 22 Apr 2018
Updated at 0438 UTC 22 Apr 2018
Potential Impact None Slight Moderate High
Time<<22/17Z 22/18Z 22/19Z 22/20Z 22/21Z 22/22Z 22/23Z 23/00Z 23/01Z 23/02Z 23/03Z 23/04Z 23/05Z>>
Type PRVL PRVL PRVL PRVL PRVL PRVL PRVL PRVL PRVL PRVL PRVL PRVL PRVL
VIS 6 4 4 4 4 4 4 >6 >6 >6 >6 >6 >6
CIG 12 15 15 15 15 15 15 30 30 30 30 30 30
Cover OVC OVC OVC OVC OVC OVC OVC BKN BKN BKN BKN BKN BKN
FltCat MVFR MVFR MVFR MVFR MVFR MVFR MVFR MVFR MVFR MVFR MVFR MVFR MVFR
WX -SHRA SHRA VCTS SHRA VCTS SHRA VCTS SHRA VCTS SHRA VCTS SHRA VCTS VCSH VCSH VCSH VCSH VCSH VCSH
WDir 80 100 100 100 100 100 100 VRB VRB VRB VRB VRB VRB
WSpd 12 12 12 12 12 12 12 4 4 4 4 4 4
WGst 20 20 20 20 20 20 20 -- -- -- -- -- --

Raw TAF
KMEM 220315Z 2203/2306 11010KT P6SM VCSH SCT060 OVC100
  FM220800 09012KT P6SM -SHRA BKN025 OVC100
  FM221100 08012G20KT 6SM -SHRA BKN012 OVC020
  FM221800 10012G20KT 4SM SHRA VCTS BKN015CB OVC025
  FM230000 VRB04KT P6SM VCSH SCT015 BKN030


METAR Board
Radar Display
Forecast Discussion

FOR SITUATIONAL AWARENESS. NOT TO BE USED FOR FLIGHT PLANNING PURPOSES.